sensor_id;sensor_type;location;lat;lon;timestamp;P1;durP1;ratioP1;P2;durP2;ratioP2
52618;SDS011;38513;53.234;6.568;2023-05-07T00:00:42;33.63;;;26.55;;
52618;SDS011;38513;53.234;6.568;2023-05-07T00:03:08;34.92;;;27.52;;
52618;SDS011;38513;53.234;6.568;2023-05-07T00:05:34;35.42;;;26.80;;
52618;SDS011;38513;53.234;6.568;2023-05-07T00:08:01;33.50;;;26.73;;
52618;SDS011;38513;53.234;6.568;2023-05-07T00:10:27;33.47;;;26.50;;
52618;SDS011;38513;53.234;6.568;2023-05-07T00:12:54;33.70;;;26.10;;
52618;SDS011;38513;53.234;6.568;2023-05-07T00:15:20;31.50;;;26.33;;
52618;SDS011;38513;53.234;6.568;2023-05-07T00:17:46;32.67;;;26.27;;
52618;SDS011;38513;53.234;6.568;2023-05-07T00:20:15;33.78;;;26.58;;
52618;SDS011;38513;53.234;6.568;2023-05-07T00:22:41;34.00;;;26.70;;
52618;SDS011;38513;53.234;6.568;2023-05-07T00:25:10;35.30;;;27.52;;
52618;SDS011;38513;53.234;6.568;2023-05-07T00:27:36;35.50;;;27.70;;
52618;SDS011;38513;53.234;6.568;2023-05-07T00:30:05;34.22;;;27.98;;
52618;SDS011;38513;53.234;6.568;2023-05-07T00:32:32;35.05;;;27.88;;
52618;SDS011;38513;53.234;6.568;2023-05-07T00:34:59;36.15;;;28.52;;
52618;SDS011;38513;53.234;6.568;2023-05-07T00:37:28;38.00;;;28.27;;
52618;SDS011;38513;53.234;6.568;2023-05-07T00:39:58;37.80;;;30.05;;
52618;SDS011;38513;53.234;6.568;2023-05-07T00:42:24;39.42;;;30.85;;
52618;SDS011;38513;53.234;6.568;2023-05-07T00:44:53;39.75;;;31.92;;
52618;SDS011;38513;53.234;6.568;2023-05-07T00:47:23;39.65;;;31.75;;
52618;SDS011;38513;53.234;6.568;2023-05-07T00:49:50;40.45;;;31.45;;
52618;SDS011;38513;53.234;6.568;2023-05-07T00:52:22;42.55;;;32.47;;
52618;SDS011;38513;53.234;6.568;2023-05-07T00:54:50;41.75;;;31.80;;
52618;SDS011;38513;53.234;6.568;2023-05-07T00:57:18;40.85;;;32.80;;
52618;SDS011;38513;53.234;6.568;2023-05-07T00:59:45;39.20;;;31.88;;
52618;SDS011;38513;53.234;6.568;2023-05-07T01:02:31;39.22;;;31.95;;
52618;SDS011;38513;53.234;6.568;2023-05-07T01:04:58;41.88;;;32.30;;
52618;SDS011;38513;53.234;6.568;2023-05-07T01:07:26;43.50;;;33.40;;
52618;SDS011;38513;53.234;6.568;2023-05-07T01:09:53;39.70;;;31.85;;
52618;SDS011;38513;53.234;6.568;2023-05-07T01:12:19;40.85;;;33.67;;
52618;SDS011;38513;53.234;6.568;2023-05-07T01:14:46;41.25;;;33.58;;
52618;SDS011;38513;53.234;6.568;2023-05-07T01:17:15;42.85;;;33.65;;
52618;SDS011;38513;53.234;6.568;2023-05-07T01:19:41;42.20;;;33.38;;
52618;SDS011;38513;53.234;6.568;2023-05-07T01:22:10;41.00;;;33.33;;
52618;SDS011;38513;53.234;6.568;2023-05-07T01:24:37;45.45;;;34.72;;
52618;SDS011;38513;53.234;6.568;2023-05-07T01:27:04;46.00;;;36.08;;
52618;SDS011;38513;53.234;6.568;2023-05-07T01:29:30;45.67;;;35.65;;
52618;SDS011;38513;53.234;6.568;2023-05-07T01:31:57;46.63;;;36.40;;
52618;SDS011;38513;53.234;6.568;2023-05-07T01:34:25;46.00;;;37.03;;
52618;SDS011;38513;53.234;6.568;2023-05-07T01:36:52;49.58;;;38.00;;
52618;SDS011;38513;53.234;6.568;2023-05-07T01:39:27;46.78;;;36.78;;
52618;SDS011;38513;53.234;6.568;2023-05-07T01:41:54;46.92;;;37.15;;
52618;SDS011;38513;53.234;6.568;2023-05-07T01:44:22;43.03;;;34.90;;
52618;SDS011;38513;53.234;6.568;2023-05-07T01:46:51;47.83;;;35.97;;
52618;SDS011;38513;53.234;6.568;2023-05-07T01:49:18;44.42;;;34.75;;
52618;SDS011;38513;53.234;6.568;2023-05-07T01:51:44;42.85;;;35.20;;
52618;SDS011;38513;53.234;6.568;2023-05-07T01:54:10;46.58;;;35.13;;
52618;SDS011;38513;53.234;6.568;2023-05-07T01:56:37;45.38;;;34.83;;
52618;SDS011;38513;53.234;6.568;2023-05-07T01:59:05;42.60;;;34.30;;
52618;SDS011;38513;53.234;6.568;2023-05-07T02:01:32;43.22;;;34.47;;
52618;SDS011;38513;53.234;6.568;2023-05-07T02:03:58;47.47;;;35.70;;
52618;SDS011;38513;53.234;6.568;2023-05-07T02:06:24;41.83;;;34.10;;
52618;SDS011;38513;53.234;6.568;2023-05-07T02:08:51;42.58;;;32.97;;
52618;SDS011;38513;53.234;6.568;2023-05-07T02:11:17;45.60;;;35.80;;
52618;SDS011;38513;53.234;6.568;2023-05-07T02:13:43;50.47;;;36.53;;
52618;SDS011;38513;53.234;6.568;2023-05-07T02:16:10;47.40;;;36.88;;
52618;SDS011;38513;53.234;6.568;2023-05-07T02:18:36;47.00;;;36.05;;
52618;SDS011;38513;53.234;6.568;2023-05-07T02:21:08;45.55;;;35.40;;
52618;SDS011;38513;53.234;6.568;2023-05-07T02:23:35;46.40;;;35.05;;
52618;SDS011;38513;53.234;6.568;2023-05-07T02:26:01;45.55;;;34.45;;
52618;SDS011;38513;53.234;6.568;2023-05-07T02:28:27;48.00;;;36.42;;
52618;SDS011;38513;53.234;6.568;2023-05-07T02:30:56;46.20;;;36.13;;
52618;SDS011;38513;53.234;6.568;2023-05-07T02:33:29;50.10;;;37.03;;
52618;SDS011;38513;53.234;6.568;2023-05-07T02:36:06;51.85;;;38.72;;
52618;SDS011;38513;53.234;6.568;2023-05-07T02:38:35;52.13;;;39.75;;
52618;SDS011;38513;53.234;6.568;2023-05-07T02:41:02;52.88;;;41.45;;
52618;SDS011;38513;53.234;6.568;2023-05-07T02:43:28;55.20;;;42.45;;
52618;SDS011;38513;53.234;6.568;2023-05-07T02:46:07;57.88;;;43.47;;
52618;SDS011;38513;53.234;6.568;2023-05-07T02:48:34;55.80;;;42.25;;
52618;SDS011;38513;53.234;6.568;2023-05-07T02:51:03;59.00;;;43.25;;
52618;SDS011;38513;53.234;6.568;2023-05-07T02:53:30;56.03;;;42.35;;
52618;SDS011;38513;53.234;6.568;2023-05-07T02:55:57;53.05;;;41.65;;
52618;SDS011;38513;53.234;6.568;2023-05-07T02:58:23;53.28;;;42.17;;
52618;SDS011;38513;53.234;6.568;2023-05-07T03:00:50;53.33;;;41.30;;
52618;SDS011;38513;53.234;6.568;2023-05-07T03:03:16;56.03;;;41.92;;
52618;SDS011;38513;53.234;6.568;2023-05-07T03:05:42;54.40;;;40.70;;
52618;SDS011;38513;53.234;6.568;2023-05-07T03:08:08;51.45;;;38.75;;
52618;SDS011;38513;53.234;6.568;2023-05-07T03:10:35;51.05;;;37.80;;
52618;SDS011;38513;53.234;6.568;2023-05-07T03:13:02;51.92;;;37.83;;
52618;SDS011;38513;53.234;6.568;2023-05-07T03:15:28;49.03;;;37.33;;
52618;SDS011;38513;53.234;6.568;2023-05-07T03:17:54;46.88;;;35.85;;
52618;SDS011;38513;53.234;6.568;2023-05-07T03:20:21;48.55;;;36.25;;
52618;SDS011;38513;53.234;6.568;2023-05-07T03:22:50;45.35;;;35.08;;
52618;SDS011;38513;53.234;6.568;2023-05-07T03:25:16;50.35;;;36.70;;
52618;SDS011;38513;53.234;6.568;2023-05-07T03:27:42;49.70;;;38.55;;
52618;SDS011;38513;53.234;6.568;2023-05-07T03:30:12;53.33;;;39.03;;
52618;SDS011;38513;53.234;6.568;2023-05-07T03:32:38;51.22;;;39.05;;
52618;SDS011;38513;53.234;6.568;2023-05-07T03:35:04;52.95;;;39.17;;
52618;SDS011;38513;53.234;6.568;2023-05-07T03:37:30;51.63;;;37.15;;
52618;SDS011;38513;53.234;6.568;2023-05-07T03:39:57;51.33;;;37.63;;
52618;SDS011;38513;53.234;6.568;2023-05-07T03:42:23;51.58;;;37.67;;
52618;SDS011;38513;53.234;6.568;2023-05-07T03:44:50;52.00;;;37.08;;
52618;SDS011;38513;53.234;6.568;2023-05-07T03:47:19;51.90;;;38.97;;
52618;SDS011;38513;53.234;6.568;2023-05-07T03:49:45;49.78;;;37.83;;
52618;SDS011;38513;53.234;6.568;2023-05-07T03:52:11;49.88;;;37.97;;
52618;SDS011;38513;53.234;6.568;2023-05-07T03:54:38;50.30;;;36.97;;
52618;SDS011;38513;53.234;6.568;2023-05-07T03:57:04;50.03;;;37.67;;
52618;SDS011;38513;53.234;6.568;2023-05-07T03:59:30;47.45;;;36.95;;
52618;SDS011;38513;53.234;6.568;2023-05-07T04:01:57;53.22;;;38.70;;
52618;SDS011;38513;53.234;6.568;2023-05-07T04:04:23;50.03;;;38.38;;
52618;SDS011;38513;53.234;6.568;2023-05-07T04:06:50;54.08;;;38.92;;
52618;SDS011;38513;53.234;6.568;2023-05-07T04:09:16;56.10;;;39.30;;
52618;SDS011;38513;53.234;6.568;2023-05-07T04:11:43;54.75;;;40.55;;
52618;SDS011;38513;53.234;6.568;2023-05-07T04:14:12;53.47;;;40.08;;
52618;SDS011;38513;53.234;6.568;2023-05-07T04:16:41;53.13;;;40.05;;
52618;SDS011;38513;53.234;6.568;2023-05-07T04:19:07;54.13;;;39.25;;
52618;SDS011;38513;53.234;6.568;2023-05-07T04:21:33;52.42;;;40.15;;
52618;SDS011;38513;53.234;6.568;2023-05-07T04:23:59;53.28;;;39.00;;
52618;SDS011;38513;53.234;6.568;2023-05-07T04:26:26;53.30;;;39.90;;
52618;SDS011;38513;53.234;6.568;2023-05-07T04:28:56;52.78;;;37.78;;
52618;SDS011;38513;53.234;6.568;2023-05-07T04:31:24;49.78;;;38.35;;
52618;SDS011;38513;53.234;6.568;2023-05-07T04:33:53;49.35;;;36.85;;
52618;SDS011;38513;53.234;6.568;2023-05-07T04:36:20;46.30;;;35.55;;
52618;SDS011;38513;53.234;6.568;2023-05-07T04:38:46;48.22;;;35.33;;
52618;SDS011;38513;53.234;6.568;2023-05-07T04:41:12;51.13;;;38.72;;
52618;SDS011;38513;53.234;6.568;2023-05-07T04:43:39;45.63;;;35.90;;
52618;SDS011;38513;53.234;6.568;2023-05-07T04:46:10;46.38;;;35.63;;
52618;SDS011;38513;53.234;6.568;2023-05-07T04:48:37;46.15;;;35.80;;
52618;SDS011;38513;53.234;6.568;2023-05-07T04:51:07;45.90;;;35.80;;
52618;SDS011;38513;53.234;6.568;2023-05-07T04:53:37;44.17;;;34.53;;
52618;SDS011;38513;53.234;6.568;2023-05-07T04:56:15;45.17;;;33.70;;
52618;SDS011;38513;53.234;6.568;2023-05-07T04:58:41;43.78;;;33.35;;
52618;SDS011;38513;53.234;6.568;2023-05-07T05:01:11;41.37;;;32.87;;
52618;SDS011;38513;53.234;6.568;2023-05-07T05:03:46;44.88;;;33.90;;
52618;SDS011;38513;53.234;6.568;2023-05-07T05:06:16;39.70;;;32.20;;
52618;SDS011;38513;53.234;6.568;2023-05-07T05:08:55;41.83;;;32.47;;
52618;SDS011;38513;53.234;6.568;2023-05-07T05:11:21;41.40;;;32.90;;
52618;SDS011;38513;53.234;6.568;2023-05-07T05:13:48;40.95;;;31.95;;
52618;SDS011;38513;53.234;6.568;2023-05-07T05:16:15;40.80;;;31.38;;
52618;SDS011;38513;53.234;6.568;2023-05-07T05:18:41;41.88;;;32.38;;
52618;SDS011;38513;53.234;6.568;2023-05-07T05:21:07;41.25;;;31.83;;
52618;SDS011;38513;53.234;6.568;2023-05-07T05:23:33;41.60;;;31.73;;
52618;SDS011;38513;53.234;6.568;2023-05-07T05:25:59;42.85;;;32.70;;
52618;SDS011;38513;53.234;6.568;2023-05-07T05:28:26;38.47;;;30.98;;
52618;SDS011;38513;53.234;6.568;2023-05-07T05:30:59;39.22;;;31.30;;
52618;SDS011;38513;53.234;6.568;2023-05-07T05:33:28;38.72;;;30.85;;
52618;SDS011;38513;53.234;6.568;2023-05-07T05:35:54;40.53;;;32.15;;
52618;SDS011;38513;53.234;6.568;2023-05-07T05:38:20;39.22;;;30.75;;
52618;SDS011;38513;53.234;6.568;2023-05-07T05:40:46;38.37;;;30.90;;
52618;SDS011;38513;53.234;6.568;2023-05-07T05:43:13;37.35;;;30.40;;
52618;SDS011;38513;53.234;6.568;2023-05-07T05:45:40;39.58;;;30.30;;
52618;SDS011;38513;53.234;6.568;2023-05-07T05:48:06;38.17;;;30.80;;
52618;SDS011;38513;53.234;6.568;2023-05-07T05:50:33;37.60;;;30.77;;
52618;SDS011;38513;53.234;6.568;2023-05-07T05:53:01;37.65;;;30.40;;
52618;SDS011;38513;53.234;6.568;2023-05-07T05:55:28;33.80;;;29.05;;
52618;SDS011;38513;53.234;6.568;2023-05-07T05:57:57;37.25;;;28.75;;
52618;SDS011;38513;53.234;6.568;2023-05-07T06:00:24;35.83;;;28.38;;
52618;SDS011;38513;53.234;6.568;2023-05-07T06:02:50;33.20;;;27.58;;
52618;SDS011;38513;53.234;6.568;2023-05-07T06:05:17;35.03;;;28.93;;
52618;SDS011;38513;53.234;6.568;2023-05-07T06:07:45;35.30;;;28.88;;
52618;SDS011;38513;53.234;6.568;2023-05-07T06:10:12;36.05;;;28.98;;
52618;SDS011;38513;53.234;6.568;2023-05-07T06:12:38;37.95;;;30.20;;
52618;SDS011;38513;53.234;6.568;2023-05-07T06:15:05;34.55;;;28.63;;
52618;SDS011;38513;53.234;6.568;2023-05-07T06:17:31;34.38;;;29.50;;
52618;SDS011;38513;53.234;6.568;2023-05-07T06:19:58;34.50;;;28.33;;
52618;SDS011;38513;53.234;6.568;2023-05-07T06:22:24;36.58;;;29.75;;
52618;SDS011;38513;53.234;6.568;2023-05-07T06:24:51;35.45;;;29.67;;
52618;SDS011;38513;53.234;6.568;2023-05-07T06:27:20;36.20;;;30.63;;
52618;SDS011;38513;53.234;6.568;2023-05-07T06:29:49;37.63;;;31.70;;
52618;SDS011;38513;53.234;6.568;2023-05-07T06:32:15;39.17;;;33.03;;
52618;SDS011;38513;53.234;6.568;2023-05-07T06:34:42;38.92;;;32.08;;
52618;SDS011;38513;53.234;6.568;2023-05-07T06:37:08;41.40;;;35.60;;
52618;SDS011;38513;53.234;6.568;2023-05-07T06:39:37;43.92;;;36.97;;
52618;SDS011;38513;53.234;6.568;2023-05-07T06:42:04;42.45;;;35.88;;
52618;SDS011;38513;53.234;6.568;2023-05-07T06:44:31;41.47;;;35.25;;
52618;SDS011;38513;53.234;6.568;2023-05-07T06:46:57;43.95;;;35.72;;
52618;SDS011;38513;53.234;6.568;2023-05-07T06:49:29;42.42;;;36.13;;
52618;SDS011;38513;53.234;6.568;2023-05-07T06:52:02;38.45;;;33.13;;
52618;SDS011;38513;53.234;6.568;2023-05-07T06:54:28;36.73;;;30.40;;
52618;SDS011;38513;53.234;6.568;2023-05-07T06:56:55;37.08;;;30.80;;
52618;SDS011;38513;53.234;6.568;2023-05-07T06:59:27;35.50;;;29.67;;
52618;SDS011;38513;53.234;6.568;2023-05-07T07:01:56;33.08;;;28.33;;
52618;SDS011;38513;53.234;6.568;2023-05-07T07:04:26;34.05;;;28.35;;
52618;SDS011;38513;53.234;6.568;2023-05-07T07:06:56;32.53;;;27.50;;
52618;SDS011;38513;53.234;6.568;2023-05-07T07:09:22;32.17;;;26.15;;
52618;SDS011;38513;53.234;6.568;2023-05-07T07:11:49;33.22;;;26.55;;
52618;SDS011;38513;53.234;6.568;2023-05-07T07:14:16;32.63;;;25.92;;
52618;SDS011;38513;53.234;6.568;2023-05-07T07:16:42;30.83;;;25.00;;
52618;SDS011;38513;53.234;6.568;2023-05-07T07:19:08;32.38;;;26.08;;
52618;SDS011;38513;53.234;6.568;2023-05-07T07:21:34;32.95;;;26.02;;
52618;SDS011;38513;53.234;6.568;2023-05-07T07:24:01;32.83;;;26.05;;
52618;SDS011;38513;53.234;6.568;2023-05-07T07:26:27;32.33;;;26.13;;
52618;SDS011;38513;53.234;6.568;2023-05-07T07:28:54;35.72;;;26.75;;
52618;SDS011;38513;53.234;6.568;2023-05-07T07:31:29;33.58;;;26.52;;
52618;SDS011;38513;53.234;6.568;2023-05-07T07:34:16;33.10;;;25.80;;
52618;SDS011;38513;53.234;6.568;2023-05-07T07:36:42;34.80;;;27.10;;
52618;SDS011;38513;53.234;6.568;2023-05-07T07:39:11;32.75;;;25.92;;
52618;SDS011;38513;53.234;6.568;2023-05-07T07:41:40;34.60;;;26.52;;
52618;SDS011;38513;53.234;6.568;2023-05-07T07:44:07;34.15;;;26.40;;
52618;SDS011;38513;53.234;6.568;2023-05-07T07:46:39;31.00;;;26.00;;
52618;SDS011;38513;53.234;6.568;2023-05-07T07:49:05;32.92;;;26.23;;
52618;SDS011;38513;53.234;6.568;2023-05-07T07:51:31;33.17;;;26.33;;
52618;SDS011;38513;53.234;6.568;2023-05-07T07:53:58;34.00;;;26.55;;
52618;SDS011;38513;53.234;6.568;2023-05-07T07:56:24;33.75;;;26.58;;
52618;SDS011;38513;53.234;6.568;2023-05-07T07:58:53;33.72;;;26.67;;
52618;SDS011;38513;53.234;6.568;2023-05-07T08:01:19;34.72;;;26.75;;
52618;SDS011;38513;53.234;6.568;2023-05-07T08:03:46;31.55;;;25.90;;
52618;SDS011;38513;53.234;6.568;2023-05-07T08:06:13;33.13;;;26.02;;
52618;SDS011;38513;53.234;6.568;2023-05-07T08:08:39;34.10;;;26.30;;
52618;SDS011;38513;53.234;6.568;2023-05-07T08:11:05;33.20;;;26.08;;
52618;SDS011;38513;53.234;6.568;2023-05-07T08:13:31;33.85;;;25.98;;
52618;SDS011;38513;53.234;6.568;2023-05-07T08:16:01;31.03;;;25.83;;
52618;SDS011;38513;53.234;6.568;2023-05-07T08:18:27;33.13;;;25.65;;
52618;SDS011;38513;53.234;6.568;2023-05-07T08:20:54;32.20;;;25.00;;
52618;SDS011;38513;53.234;6.568;2023-05-07T08:23:21;32.47;;;26.23;;
52618;SDS011;38513;53.234;6.568;2023-05-07T08:25:49;32.63;;;26.17;;
52618;SDS011;38513;53.234;6.568;2023-05-07T08:28:16;33.10;;;26.23;;
52618;SDS011;38513;53.234;6.568;2023-05-07T08:30:42;31.38;;;25.88;;
52618;SDS011;38513;53.234;6.568;2023-05-07T08:33:12;29.50;;;23.17;;
52618;SDS011;38513;53.234;6.568;2023-05-07T08:35:38;31.90;;;24.63;;
52618;SDS011;38513;53.234;6.568;2023-05-07T08:38:05;32.40;;;25.57;;
52618;SDS011;38513;53.234;6.568;2023-05-07T08:40:38;30.80;;;25.50;;
52618;SDS011;38513;53.234;6.568;2023-05-07T08:43:06;31.13;;;24.20;;
52618;SDS011;38513;53.234;6.568;2023-05-07T08:45:33;31.13;;;24.20;;
52618;SDS011;38513;53.234;6.568;2023-05-07T08:48:01;28.80;;;23.38;;
52618;SDS011;38513;53.234;6.568;2023-05-07T08:50:28;30.95;;;23.95;;
52618;SDS011;38513;53.234;6.568;2023-05-07T08:52:56;29.98;;;25.05;;
52618;SDS011;38513;53.234;6.568;2023-05-07T08:55:29;31.37;;;25.03;;
52618;SDS011;38513;53.234;6.568;2023-05-07T08:57:59;30.00;;;23.55;;
52618;SDS011;38513;53.234;6.568;2023-05-07T09:00:26;29.48;;;23.25;;
52618;SDS011;38513;53.234;6.568;2023-05-07T09:02:53;29.02;;;23.05;;
52618;SDS011;38513;53.234;6.568;2023-05-07T09:05:20;27.27;;;22.70;;
52618;SDS011;38513;53.234;6.568;2023-05-07T09:07:46;29.37;;;23.53;;
52618;SDS011;38513;53.234;6.568;2023-05-07T09:10:12;27.83;;;23.17;;
52618;SDS011;38513;53.234;6.568;2023-05-07T09:12:39;27.40;;;23.20;;
52618;SDS011;38513;53.234;6.568;2023-05-07T09:15:11;29.33;;;23.55;;
52618;SDS011;38513;53.234;6.568;2023-05-07T09:17:38;27.08;;;22.73;;
52618;SDS011;38513;53.234;6.568;2023-05-07T09:20:06;30.27;;;23.70;;
52618;SDS011;38513;53.234;6.568;2023-05-07T09:22:39;28.30;;;22.42;;
52618;SDS011;38513;53.234;6.568;2023-05-07T09:25:06;27.67;;;23.17;;
52618;SDS011;38513;53.234;6.568;2023-05-07T09:27:35;28.20;;;23.00;;
52618;SDS011;38513;53.234;6.568;2023-05-07T09:30:05;27.35;;;22.42;;
52618;SDS011;38513;53.234;6.568;2023-05-07T09:32:35;27.30;;;22.33;;
52618;SDS011;38513;53.234;6.568;2023-05-07T09:35:06;26.65;;;22.00;;
52618;SDS011;38513;53.234;6.568;2023-05-07T09:37:35;26.80;;;21.87;;
52618;SDS011;38513;53.234;6.568;2023-05-07T09:40:05;27.77;;;23.33;;
52618;SDS011;38513;53.234;6.568;2023-05-07T09:42:32;28.42;;;22.63;;
52618;SDS011;38513;53.234;6.568;2023-05-07T09:44:59;28.83;;;22.60;;
52618;SDS011;38513;53.234;6.568;2023-05-07T09:47:32;26.67;;;22.08;;
52618;SDS011;38513;53.234;6.568;2023-05-07T09:49:58;27.67;;;22.65;;
52618;SDS011;38513;53.234;6.568;2023-05-07T09:52:31;27.42;;;22.55;;
52618;SDS011;38513;53.234;6.568;2023-05-07T09:55:02;26.87;;;21.20;;
52618;SDS011;38513;53.234;6.568;2023-05-07T09:57:32;24.23;;;20.73;;
52618;SDS011;38513;53.234;6.568;2023-05-07T09:59:58;22.90;;;20.30;;
52618;SDS011;38513;53.234;6.568;2023-05-07T10:02:36;26.00;;;20.55;;
52618;SDS011;38513;53.234;6.568;2023-05-07T10:05:03;24.15;;;20.45;;
52618;SDS011;38513;53.234;6.568;2023-05-07T10:07:31;23.08;;;19.92;;
52618;SDS011;38513;53.234;6.568;2023-05-07T10:09:58;23.67;;;19.25;;
52618;SDS011;38513;53.234;6.568;2023-05-07T10:12:28;23.50;;;20.35;;
52618;SDS011;38513;53.234;6.568;2023-05-07T10:15:03;22.67;;;19.35;;
52618;SDS011;38513;53.234;6.568;2023-05-07T10:17:35;22.77;;;19.13;;
52618;SDS011;38513;53.234;6.568;2023-05-07T10:20:01;22.05;;;19.33;;
52618;SDS011;38513;53.234;6.568;2023-05-07T10:22:28;22.27;;;18.92;;
52618;SDS011;38513;53.234;6.568;2023-05-07T10:24:57;22.95;;;19.73;;
52618;SDS011;38513;53.234;6.568;2023-05-07T10:27:28;22.17;;;19.38;;
52618;SDS011;38513;53.234;6.568;2023-05-07T10:30:12;24.03;;;20.27;;
52618;SDS011;38513;53.234;6.568;2023-05-07T10:32:51;24.67;;;20.10;;
52618;SDS011;38513;53.234;6.568;2023-05-07T10:35:23;22.30;;;19.15;;
52618;SDS011;38513;53.234;6.568;2023-05-07T10:37:50;22.73;;;20.30;;
52618;SDS011;38513;53.234;6.568;2023-05-07T10:40:16;24.35;;;20.27;;
52618;SDS011;38513;53.234;6.568;2023-05-07T10:42:56;21.42;;;18.48;;
52618;SDS011;38513;53.234;6.568;2023-05-07T10:45:24;23.05;;;19.40;;
52618;SDS011;38513;53.234;6.568;2023-05-07T10:50:36;23.55;;;18.85;;
52618;SDS011;38513;53.234;6.568;2023-05-07T10:55:45;21.17;;;18.75;;
52618;SDS011;38513;53.234;6.568;2023-05-07T11:00:48;23.42;;;18.90;;
52618;SDS011;38513;53.234;6.568;2023-05-07T11:03:14;20.77;;;18.35;;
52618;SDS011;38513;53.234;6.568;2023-05-07T11:05:41;20.83;;;17.38;;
52618;SDS011;38513;53.234;6.568;2023-05-07T11:08:08;19.95;;;17.70;;
52618;SDS011;38513;53.234;6.568;2023-05-07T11:10:47;20.10;;;16.83;;
52618;SDS011;38513;53.234;6.568;2023-05-07T11:13:13;18.10;;;16.00;;
52618;SDS011;38513;53.234;6.568;2023-05-07T11:15:41;19.48;;;16.25;;
52618;SDS011;38513;53.234;6.568;2023-05-07T11:18:11;17.85;;;15.95;;
52618;SDS011;38513;53.234;6.568;2023-05-07T11:20:51;17.73;;;15.43;;
52618;SDS011;38513;53.234;6.568;2023-05-07T11:25:59;17.60;;;15.63;;
52618;SDS011;38513;53.234;6.568;2023-05-07T11:28:29;16.60;;;14.80;;
52618;SDS011;38513;53.234;6.568;2023-05-07T11:30:56;18.13;;;16.17;;
52618;SDS011;38513;53.234;6.568;2023-05-07T11:33:23;17.30;;;14.57;;
52618;SDS011;38513;53.234;6.568;2023-05-07T11:35:50;16.33;;;14.63;;
52618;SDS011;38513;53.234;6.568;2023-05-07T11:38:18;16.80;;;15.00;;
52618;SDS011;38513;53.234;6.568;2023-05-07T11:40:50;16.95;;;15.05;;
52618;SDS011;38513;53.234;6.568;2023-05-07T11:43:17;16.92;;;14.95;;
52618;SDS011;38513;53.234;6.568;2023-05-07T11:45:44;19.45;;;14.65;;
52618;SDS011;38513;53.234;6.568;2023-05-07T11:48:12;15.80;;;13.90;;
52618;SDS011;38513;53.234;6.568;2023-05-07T11:50:51;15.88;;;14.18;;
52618;SDS011;38513;53.234;6.568;2023-05-07T11:53:20;15.05;;;13.55;;
52618;SDS011;38513;53.234;6.568;2023-05-07T11:55:56;16.20;;;14.37;;
52618;SDS011;38513;53.234;6.568;2023-05-07T11:58:23;16.38;;;14.65;;
52618;SDS011;38513;53.234;6.568;2023-05-07T12:00:50;16.45;;;14.75;;
52618;SDS011;38513;53.234;6.568;2023-05-07T12:03:24;17.52;;;15.70;;
52618;SDS011;38513;53.234;6.568;2023-05-07T12:05:50;15.80;;;14.10;;
52618;SDS011;38513;53.234;6.568;2023-05-07T12:08:17;16.90;;;14.48;;
52618;SDS011;38513;53.234;6.568;2023-05-07T12:10:43;16.07;;;13.83;;
52618;SDS011;38513;53.234;6.568;2023-05-07T12:13:28;15.07;;;13.55;;
52618;SDS011;38513;53.234;6.568;2023-05-07T12:15:55;14.90;;;13.07;;
52618;SDS011;38513;53.234;6.568;2023-05-07T12:18:22;15.30;;;13.68;;
52618;SDS011;38513;53.234;6.568;2023-05-07T12:20:51;14.38;;;12.88;;
52618;SDS011;38513;53.234;6.568;2023-05-07T12:23:17;15.20;;;13.13;;
52618;SDS011;38513;53.234;6.568;2023-05-07T12:25:44;14.68;;;13.18;;
52618;SDS011;38513;53.234;6.568;2023-05-07T12:28:17;14.90;;;13.02;;
52618;SDS011;38513;53.234;6.568;2023-05-07T12:30:47;15.10;;;13.50;;
52618;SDS011;38513;53.234;6.568;2023-05-07T12:33:17;16.23;;;13.57;;
52618;SDS011;38513;53.234;6.568;2023-05-07T12:35:48;16.75;;;13.70;;
52618;SDS011;38513;53.234;6.568;2023-05-07T12:38:16;14.98;;;13.38;;
52618;SDS011;38513;53.234;6.568;2023-05-07T12:40:43;13.73;;;12.27;;
52618;SDS011;38513;53.234;6.568;2023-05-07T12:43:26;14.75;;;13.20;;
52618;SDS011;38513;53.234;6.568;2023-05-07T12:45:56;14.25;;;12.40;;
52618;SDS011;38513;53.234;6.568;2023-05-07T12:48:29;16.15;;;14.30;;
52618;SDS011;38513;53.234;6.568;2023-05-07T12:51:01;14.40;;;12.70;;
52618;SDS011;38513;53.234;6.568;2023-05-07T12:53:30;15.48;;;13.30;;
52618;SDS011;38513;53.234;6.568;2023-05-07T12:55:57;15.88;;;13.18;;
52618;SDS011;38513;53.234;6.568;2023-05-07T13:00:51;14.90;;;13.30;;
52618;SDS011;38513;53.234;6.568;2023-05-07T13:03:22;14.45;;;12.70;;
52618;SDS011;38513;53.234;6.568;2023-05-07T13:05:51;14.27;;;12.52;;
52618;SDS011;38513;53.234;6.568;2023-05-07T13:08:24;14.95;;;13.45;;
52618;SDS011;38513;53.234;6.568;2023-05-07T13:10:51;14.73;;;13.18;;
52618;SDS011;38513;53.234;6.568;2023-05-07T13:13:19;14.45;;;12.95;;
52618;SDS011;38513;53.234;6.568;2023-05-07T13:15:46;15.13;;;13.27;;
52618;SDS011;38513;53.234;6.568;2023-05-07T13:18:12;13.50;;;12.10;;
52618;SDS011;38513;53.234;6.568;2023-05-07T13:20:38;15.00;;;13.40;;
52618;SDS011;38513;53.234;6.568;2023-05-07T13:23:08;15.10;;;13.37;;
52618;SDS011;38513;53.234;6.568;2023-05-07T13:25:38;13.90;;;12.47;;
52618;SDS011;38513;53.234;6.568;2023-05-07T13:28:07;15.00;;;13.40;;
52618;SDS011;38513;53.234;6.568;2023-05-07T13:30:34;14.77;;;12.73;;
52618;SDS011;38513;53.234;6.568;2023-05-07T13:33:03;14.93;;;13.32;;
52618;SDS011;38513;53.234;6.568;2023-05-07T13:35:33;14.88;;;13.35;;
52618;SDS011;38513;53.234;6.568;2023-05-07T13:37:59;14.00;;;12.00;;
52618;SDS011;38513;53.234;6.568;2023-05-07T13:40:28;15.25;;;13.73;;
52618;SDS011;38513;53.234;6.568;2023-05-07T13:42:59;14.60;;;13.00;;
52618;SDS011;38513;53.234;6.568;2023-05-07T13:45:27;14.40;;;12.90;;
52618;SDS011;38513;53.234;6.568;2023-05-07T13:47:56;13.57;;;12.18;;
52618;SDS011;38513;53.234;6.568;2023-05-07T13:50:22;14.00;;;12.60;;
52618;SDS011;38513;53.234;6.568;2023-05-07T13:52:48;13.23;;;11.82;;
52618;SDS011;38513;53.234;6.568;2023-05-07T13:55:18;13.90;;;12.45;;
52618;SDS011;38513;53.234;6.568;2023-05-07T13:57:46;12.00;;;10.80;;
52618;SDS011;38513;53.234;6.568;2023-05-07T14:00:13;13.23;;;11.10;;
52618;SDS011;38513;53.234;6.568;2023-05-07T14:02:40;12.32;;;10.70;;
52618;SDS011;38513;53.234;6.568;2023-05-07T14:05:12;12.38;;;10.15;;
52618;SDS011;38513;53.234;6.568;2023-05-07T14:07:38;12.73;;;11.43;;
52618;SDS011;38513;53.234;6.568;2023-05-07T14:10:05;13.35;;;10.77;;
52618;SDS011;38513;53.234;6.568;2023-05-07T14:12:35;12.38;;;11.07;;
52618;SDS011;38513;53.234;6.568;2023-05-07T14:15:01;12.93;;;10.88;;
52618;SDS011;38513;53.234;6.568;2023-05-07T14:17:27;11.80;;;10.60;;
52618;SDS011;38513;53.234;6.568;2023-05-07T14:19:54;12.13;;;10.82;;
52618;SDS011;38513;53.234;6.568;2023-05-07T14:22:21;12.95;;;11.13;;
52618;SDS011;38513;53.234;6.568;2023-05-07T14:24:47;11.85;;;10.40;;
52618;SDS011;38513;53.234;6.568;2023-05-07T14:27:16;12.98;;;10.88;;
52618;SDS011;38513;53.234;6.568;2023-05-07T14:29:43;12.00;;;10.80;;
52618;SDS011;38513;53.234;6.568;2023-05-07T14:32:10;11.57;;;10.38;;
52618;SDS011;38513;53.234;6.568;2023-05-07T14:34:46;11.57;;;9.93;;
52618;SDS011;38513;53.234;6.568;2023-05-07T14:37:12;11.90;;;10.40;;
52618;SDS011;38513;53.234;6.568;2023-05-07T14:39:39;12.05;;;10.48;;